Time;durP1;ratioP1;P1;durP2;ratioP2;P2;SDS_P1;SDS_P2;PMS_P1;PMS_P2;Temp;Humidity;BMP_temperature;BMP_pressure;BME280_temperature;BME280_humidity;BME280_pressure;Samples;Min_cycle;Max_cycle;Signal;HPM_P1;HPM_P2
2022/05/11 00:01:57;;;;;;;17.83;7.20;;;14.80;98.90;;;;;;4757718;30;20079;-63
2022/05/11 00:04:25;;;;;;;14.98;7.00;;;14.90;99.00;;;;;;4756098;30;21236;-63
2022/05/11 00:06:53;;;;;;;12.77;6.35;;;14.90;98.80;;;;;;4755784;30;20056;-63
2022/05/11 00:09:20;;;;;;;10.10;5.60;;;14.80;98.80;;;;;;4753699;30;20052;-63
2022/05/11 00:11:47;;;;;;;10.40;5.78;;;14.80;98.90;;;;;;4757825;30;20051;-64
2022/05/11 00:14:14;;;;;;;12.23;5.60;;;14.80;99.10;;;;;;4752955;30;20067;-63
2022/05/11 00:16:42;;;;;;;13.43;6.35;;;14.70;99.20;;;;;;4740596;30;20108;-63
2022/05/11 00:19:09;;;;;;;12.93;6.30;;;14.70;99.20;;;;;;4738434;30;20075;-63
2022/05/11 00:21:36;;;;;;;9.35;5.32;;;14.70;99.50;;;;;;4747299;30;20051;-63
2022/05/11 00:24:04;;;;;;;13.00;7.03;;;14.70;99.30;;;;;;4741578;30;20051;-63
2022/05/11 00:26:31;;;;;;;12.48;6.95;;;14.70;99.70;;;;;;4739706;30;20522;-63
2022/05/11 00:28:58;;;;;;;12.35;6.07;;;14.60;99.90;;;;;;4753170;30;20069;-63
2022/05/11 00:31:25;;;;;;;12.50;6.68;;;14.60;99.90;;;;;;4753916;30;20056;-63
2022/05/11 00:33:52;;;;;;;12.07;6.28;;;14.50;99.90;;;;;;4754528;30;20661;-63
2022/05/11 00:36:19;;;;;;;9.75;6.13;;;14.50;99.90;;;;;;4738798;30;22632;-63
2022/05/11 00:38:47;;;;;;;14.30;5.65;;;14.50;99.90;;;;;;4751475;30;20052;-63
2022/05/11 00:41:15;;;;;;;13.18;6.30;;;14.50;99.90;;;;;;4758178;30;20048;-63
2022/05/11 00:43:52;;;;;;;13.25;6.78;;;14.50;99.90;;;;;;4757782;30;20553;-63
2022/05/11 00:46:42;;;;;;;17.23;7.30;;;14.50;99.90;;;;;;4739097;30;20054;-63
2022/05/11 00:49:36;;;;;;;12.18;6.47;;;14.40;99.90;;;;;;4752567;30;20079;-63
2022/05/11 00:52:12;;;;;;;12.70;6.57;;;14.40;99.90;;;;;;4756506;30;20080;-63
2022/05/11 00:54:45;;;;;;;13.95;6.28;;;14.40;99.90;;;;;;4743428;30;20653;-62
2022/05/11 00:57:30;;;;;;;14.23;6.82;;;14.30;99.70;;;;;;4741689;30;20044;-63
2022/05/11 00:59:59;;;;;;;13.82;7.15;;;14.30;99.90;;;;;;4752813;30;20647;-63
2022/05/11 01:02:27;;;;;;;16.02;7.13;;;14.30;99.90;;;;;;4753610;30;20691;-63
2022/05/11 01:05:03;;;;;;;11.73;7.00;;;14.30;99.90;;;;;;4757020;30;20488;-63
2022/05/11 01:07:31;;;;;;;12.73;6.07;;;14.20;99.90;;;;;;4758577;30;20052;-63
2022/05/11 01:09:59;;;;;;;10.05;5.80;;;14.20;99.90;;;;;;4756773;30;20040;-62
2022/05/11 01:12:31;;;;;;;11.25;5.78;;;14.20;99.90;;;;;;4757285;30;20115;-63
2022/05/11 01:15:00;;;;;;;12.65;6.60;;;14.20;99.90;;;;;;4739447;30;20055;-62
2022/05/11 01:17:28;;;;;;;11.43;6.15;;;14.20;99.90;;;;;;4752893;30;20048;-62
2022/05/11 01:19:56;;;;;;;11.55;5.65;;;14.20;99.90;;;;;;4753993;30;20126;-62
2022/05/11 01:22:46;;;;;;;12.45;6.22;;;14.10;99.90;;;;;;4738552;30;20036;-62
2022/05/11 01:25:14;;;;;;;12.75;5.78;;;14.10;99.90;;;;;;4756456;30;20040;-62
2022/05/11 01:27:47;;;;;;;12.18;5.93;;;14.10;99.90;;;;;;4754288;30;20071;-63
2022/05/11 01:30:17;;;;;;;10.95;5.97;;;14.10;99.90;;;;;;4753135;30;20609;-63
2022/05/11 01:32:48;;;;;;;9.80;5.93;;;14.10;99.90;;;;;;4754712;30;20806;-62
2022/05/11 01:35:46;;;;;;;12.75;5.40;;;14.10;99.90;;;;;;4754823;30;20060;-63
2022/05/11 01:38:35;;;;;;;9.27;5.45;;;14.00;99.90;;;;;;4753226;30;20059;-63
2022/05/11 01:41:03;;;;;;;9.20;5.55;;;13.90;99.90;;;;;;4752538;30;20062;-62
2022/05/11 01:43:33;;;;;;;12.20;5.13;;;13.80;99.90;;;;;;4754552;30;20060;-62
2022/05/11 01:46:00;;;;;;;11.05;5.75;;;13.90;99.90;;;;;;4741811;30;20072;-62
2022/05/11 01:48:28;;;;;;;13.30;5.70;;;13.90;99.90;;;;;;4754470;30;20110;-63
2022/05/11 01:50:55;;;;;;;11.60;5.70;;;13.80;99.90;;;;;;4754575;30;20132;-63
2022/05/11 01:53:23;;;;;;;11.80;5.60;;;13.80;99.90;;;;;;4751463;30;20055;-62
2022/05/11 01:55:51;;;;;;;7.93;5.35;;;13.80;99.90;;;;;;4754721;30;20129;-63
2022/05/11 01:58:19;;;;;;;12.85;5.65;;;13.70;99.90;;;;;;4738813;30;20048;-62
2022/05/11 02:00:47;;;;;;;14.40;5.72;;;13.70;99.90;;;;;;4733590;30;20067;-62
2022/05/11 02:03:18;;;;;;;10.23;5.47;;;13.80;99.90;;;;;;4750104;30;20423;-63
2022/05/11 02:08:34;;;;;;;9.43;5.15;;;13.70;99.90;;;;;;4753230;30;20109;-62
2022/05/11 02:11:02;;;;;;;11.05;5.53;;;13.70;99.90;;;;;;4754893;30;20047;-62
2022/05/11 02:13:30;;;;;;;9.27;5.45;;;13.70;99.90;;;;;;4717498;30;1153816;-63
2022/05/11 02:15:57;;;;;;;10.05;4.97;;;13.70;99.90;;;;;;4751557;30;20051;-63
2022/05/11 02:18:24;;;;;;;12.48;5.60;;;13.60;99.90;;;;;;4752154;30;20067;-62
2022/05/11 02:20:51;;;;;;;11.02;5.10;;;13.60;99.90;;;;;;4755170;30;20074;-62
2022/05/11 02:23:21;;;;;;;9.43;5.38;;;13.50;99.90;;;;;;4756367;30;20116;-62
2022/05/11 02:25:49;;;;;;;11.57;5.13;;;13.50;99.90;;;;;;4756989;30;20044;-63
2022/05/11 02:28:18;;;;;;;9.88;4.80;;;13.50;99.90;;;;;;4743417;30;20496;-62
2022/05/11 02:30:46;;;;;;;9.52;5.72;;;13.50;99.90;;;;;;4757004;30;20389;-63
2022/05/11 02:33:14;;;;;;;10.38;5.70;;;13.40;99.90;;;;;;4756619;30;20047;-62
2022/05/11 02:35:43;;;;;;;12.00;5.32;;;13.40;99.90;;;;;;4753387;30;20054;-62
2022/05/11 02:38:20;;;;;;;9.90;4.88;;;13.40;99.90;;;;;;4748560;30;20056;-64
2022/05/11 02:40:47;;;;;;;8.52;5.00;;;13.40;99.90;;;;;;4754864;30;20809;-63
2022/05/11 02:43:15;;;;;;;10.07;5.03;;;13.40;99.90;;;;;;4752750;30;20048;-62
2022/05/11 02:45:45;;;;;;;12.15;5.70;;;13.30;99.90;;;;;;4751956;30;20051;-63
2022/05/11 02:48:17;;;;;;;9.50;5.70;;;13.30;99.90;;;;;;4752836;30;20051;-62
2022/05/11 02:50:47;;;;;;;9.30;5.35;;;13.30;99.90;;;;;;4750446;30;20051;-62
2022/05/11 02:53:16;;;;;;;12.73;5.55;;;13.30;99.90;;;;;;4753128;30;20040;-62
2022/05/11 02:55:45;;;;;;;9.88;5.07;;;13.30;99.90;;;;;;4752506;30;20055;-63
2022/05/11 02:58:14;;;;;;;9.10;5.22;;;13.30;99.90;;;;;;4741672;30;20044;-62
2022/05/11 03:00:44;;;;;;;10.75;5.32;;;13.20;99.90;;;;;;4752835;30;20044;-62
2022/05/11 03:03:13;;;;;;;7.43;5.32;;;13.30;99.90;;;;;;4737054;30;20050;-62
2022/05/11 03:05:41;;;;;;;9.00;4.90;;;13.30;99.90;;;;;;4751816;30;20131;-62
2022/05/11 03:08:09;;;;;;;8.45;5.30;;;13.20;99.90;;;;;;4750404;30;20051;-62
2022/05/11 03:10:39;;;;;;;9.48;5.95;;;13.20;99.90;;;;;;4752230;30;20135;-62
2022/05/11 03:13:06;;;;;;;8.82;4.65;;;13.20;99.90;;;;;;4753946;30;20044;-63
2022/05/11 03:15:34;;;;;;;8.95;5.50;;;13.20;99.90;;;;;;4750357;30;20055;-62
2022/05/11 03:18:01;;;;;;;9.10;4.97;;;13.10;99.90;;;;;;4751448;30;20067;-62
2022/05/11 03:20:28;;;;;;;7.40;5.30;;;13.10;99.90;;;;;;4752376;30;20052;-62
2022/05/11 03:22:55;;;;;;;8.70;5.90;;;13.00;99.90;;;;;;4751048;30;20043;-62
2022/05/11 03:25:23;;;;;;;13.02;5.95;;;13.10;99.90;;;;;;4753860;30;20076;-62
2022/05/11 03:27:51;;;;;;;9.95;5.47;;;13.10;99.90;;;;;;4754852;30;20072;-62
2022/05/11 03:30:18;;;;;;;11.45;5.53;;;13.00;99.90;;;;;;4756660;30;20067;-62
2022/05/11 03:35:31;;;;;;;11.93;6.38;;;13.00;99.90;;;;;;4754877;30;20174;-62
2022/05/11 03:37:58;;;;;;;10.98;5.60;;;13.00;99.90;;;;;;4753062;30;20055;-62
2022/05/11 03:40:25;;;;;;;10.73;6.07;;;13.10;99.90;;;;;;4740886;30;20555;-62
2022/05/11 03:42:52;;;;;;;11.55;6.20;;;13.00;99.90;;;;;;4758660;30;20040;-62
2022/05/11 03:45:25;;;;;;;9.88;5.97;;;13.00;99.90;;;;;;4732069;30;20077;-62
2022/05/11 03:47:52;;;;;;;10.80;6.13;;;13.00;99.90;;;;;;4755736;30;20058;-62
2022/05/11 03:50:22;;;;;;;15.85;7.07;;;13.00;99.90;;;;;;4740772;30;20051;-62
2022/05/11 03:52:51;;;;;;;12.07;6.97;;;13.00;99.90;;;;;;4757880;30;20059;-62
2022/05/11 03:55:20;;;;;;;12.50;6.35;;;13.00;99.90;;;;;;4753657;30;20408;-62
2022/05/11 03:57:47;;;;;;;11.70;6.55;;;13.00;99.90;;;;;;4752955;30;20516;-63
2022/05/11 04:00:21;;;;;;;9.48;6.20;;;13.00;99.90;;;;;;4759320;30;20139;-62
2022/05/11 04:02:49;;;;;;;11.07;5.95;;;13.00;99.90;;;;;;4760712;30;20542;-62
2022/05/11 04:05:17;;;;;;;15.23;7.38;;;13.10;99.90;;;;;;4757464;30;20048;-62
2022/05/11 04:07:45;;;;;;;13.43;7.05;;;13.10;99.90;;;;;;4759208;30;20064;-62
2022/05/11 04:10:14;;;;;;;15.00;7.10;;;13.10;99.90;;;;;;4758448;30;20401;-62
2022/05/11 04:12:42;;;;;;;17.77;7.15;;;13.10;99.90;;;;;;4754485;30;20388;-63
2022/05/11 04:15:11;;;;;;;14.07;7.18;;;13.20;99.90;;;;;;4754263;30;20056;-62
2022/05/11 04:17:39;;;;;;;15.82;7.00;;;13.20;99.90;;;;;;4754768;30;20061;-62
2022/05/11 04:20:08;;;;;;;16.83;7.90;;;13.30;99.90;;;;;;4757571;30;20059;-63
2022/05/11 04:22:35;;;;;;;15.80;8.45;;;13.30;99.90;;;;;;4740659;30;20048;-62
2022/05/11 04:25:02;;;;;;;12.25;7.55;;;13.30;99.90;;;;;;4758779;30;20035;-63
2022/05/11 04:27:31;;;;;;;14.18;7.32;;;13.40;99.90;;;;;;4758821;30;21189;-63
2022/05/11 04:30:00;;;;;;;11.13;7.15;;;13.40;99.90;;;;;;4757663;30;20520;-62
2022/05/11 04:32:27;;;;;;;15.07;7.40;;;13.40;99.90;;;;;;4755664;30;20079;-63
2022/05/11 04:34:54;;;;;;;11.68;7.47;;;13.40;99.90;;;;;;4756085;30;20400;-62
2022/05/11 04:37:21;;;;;;;17.13;7.78;;;13.40;99.90;;;;;;4754598;30;20051;-63
2022/05/11 04:39:48;;;;;;;18.98;8.50;;;13.50;99.90;;;;;;4753542;30;20047;-63
2022/05/11 04:42:17;;;;;;;12.57;8.20;;;13.50;99.90;;;;;;4751942;30;20044;-63
2022/05/11 04:44:44;;;;;;;15.27;8.60;;;13.60;99.90;;;;;;4742681;30;20056;-62
2022/05/11 04:47:14;;;;;;;15.77;8.80;;;13.60;99.90;;;;;;4755222;30;20048;-62
2022/05/11 04:49:42;;;;;;;15.63;9.10;;;13.70;99.90;;;;;;4755647;30;20064;-63
2022/05/11 04:52:15;;;;;;;16.35;9.45;;;13.80;99.90;;;;;;4751933;30;20055;-63
2022/05/11 04:54:45;;;;;;;16.15;10.10;;;13.90;99.90;;;;;;4757497;30;21237;-63
2022/05/11 04:57:12;;;;;;;16.60;9.48;;;14.00;99.90;;;;;;4758131;30;20044;-64
2022/05/11 04:59:40;;;;;;;19.55;11.38;;;14.10;99.90;;;;;;4736218;30;20036;-63
2022/05/11 05:02:17;;;;;;;17.83;10.43;;;14.10;99.90;;;;;;4726444;30;20055;-63
2022/05/11 05:04:45;;;;;;;22.15;10.40;;;14.20;99.90;;;;;;4723236;30;20064;-63
2022/05/11 05:07:13;;;;;;;15.32;10.48;;;14.20;99.90;;;;;;4726705;29;22488;-63
2022/05/11 05:09:41;;;;;;;14.95;9.70;;;14.40;99.90;;;;;;4724960;30;20055;-63
2022/05/11 05:12:10;;;;;;;16.92;10.80;;;14.50;99.90;;;;;;4724626;30;22543;-63
2022/05/11 05:14:38;;;;;;;19.73;10.13;;;14.60;99.90;;;;;;4701831;30;20071;-63
2022/05/11 05:17:08;;;;;;;18.85;9.98;;;14.60;99.90;;;;;;4719361;30;20067;-63
2022/05/11 05:19:40;;;;;;;16.50;10.63;;;14.70;99.90;;;;;;4722901;30;20070;-63
2022/05/11 05:22:08;;;;;;;17.33;11.60;;;14.90;99.90;;;;;;4699058;30;20815;-63
2022/05/11 05:24:35;;;;;;;18.55;9.80;;;15.00;99.90;;;;;;4727180;30;20043;-63
2022/05/11 05:27:03;;;;;;;19.83;10.90;;;15.20;99.90;;;;;;4723718;30;21832;-63
2022/05/11 05:32:16;;;;;;;17.35;11.30;;;15.40;99.90;;;;;;4721097;30;20055;-64
2022/05/11 05:34:43;;;;;;;17.05;10.23;;;15.60;98.10;;;;;;4722821;30;20075;-63
2022/05/11 05:37:15;;;;;;;21.05;10.63;;;15.80;98.90;;;;;;4699665;30;20063;-63
2022/05/11 05:39:42;;;;;;;17.63;11.25;;;16.00;98.20;;;;;;4723669;30;20055;-64
2022/05/11 05:42:20;;;;;;;14.63;10.00;;;16.20;97.10;;;;;;4722596;30;22533;-63
2022/05/11 05:44:47;;;;;;;18.50;9.43;;;16.30;95.70;;;;;;4721293;30;20173;-64
2022/05/11 05:47:18;;;;;;;14.95;9.23;;;16.50;95.70;;;;;;4703404;30;20048;-63
2022/05/11 05:49:46;;;;;;;16.63;10.00;;;16.60;91.90;;;;;;4720338;30;20059;-63
2022/05/11 05:52:21;;;;;;;18.50;9.65;;;16.70;91.00;;;;;;4723232;30;20086;-63
2022/05/11 05:54:50;;;;;;;16.73;10.15;;;16.90;91.80;;;;;;4690898;30;20055;-64
2022/05/11 05:57:18;;;;;;;19.25;11.55;;;17.10;92.70;;;;;;4722228;30;20055;-63
2022/05/11 05:59:46;;;;;;;16.73;9.82;;;17.20;92.90;;;;;;4705981;30;20067;-63
2022/05/11 06:02:14;;;;;;;15.95;9.30;;;17.40;90.10;;;;;;4715723;30;20082;-64
2022/05/11 06:04:46;;;;;;;15.43;8.82;;;17.60;90.90;;;;;;4705572;30;20051;-63
2022/05/11 06:07:14;;;;;;;15.07;8.37;;;17.70;87.60;;;;;;4717324;30;20155;-64
2022/05/11 06:09:42;;;;;;;14.30;8.23;;;17.80;86.00;;;;;;4721168;30;20051;-63
2022/05/11 06:12:12;;;;;;;15.75;7.88;;;18.00;81.30;;;;;;4696762;30;20190;-63
2022/05/11 06:14:39;;;;;;;11.43;7.15;;;18.10;81.20;;;;;;4711492;30;21109;-63
2022/05/11 06:17:20;;;;;;;11.45;7.50;;;18.30;80.70;;;;;;4720009;30;20186;-63
2022/05/11 06:19:49;;;;;;;14.35;7.85;;;18.50;87.90;;;;;;4721789;30;20080;-64
2022/05/11 06:22:16;;;;;;;13.48;7.10;;;18.60;84.20;;;;;;4703609;30;20090;-63
2022/05/11 06:24:44;;;;;;;11.40;7.30;;;18.70;82.00;;;;;;4722121;30;20084;-63
2022/05/11 06:27:23;;;;;;;11.50;6.90;;;18.80;75.60;;;;;;4719643;30;20086;-64
2022/05/11 06:29:56;;;;;;;11.80;6.90;;;18.90;77.80;;;;;;4721024;30;20067;-64
2022/05/11 06:32:24;;;;;;;11.45;7.07;;;19.10;79.90;;;;;;4711646;30;20119;-64
2022/05/11 06:34:53;;;;;;;10.68;6.47;;;19.20;80.10;;;;;;4708839;30;20070;-63
2022/05/11 06:37:22;;;;;;;15.15;6.28;;;19.30;77.90;;;;;;4678464;30;20098;-64
2022/05/11 06:39:50;;;;;;;10.38;6.28;;;19.50;78.40;;;;;;4722175;30;20070;-64
2022/05/11 06:42:17;;;;;;;14.75;6.50;;;19.60;78.20;;;;;;4708948;30;20139;-63
2022/05/11 06:44:44;;;;;;;11.40;5.80;;;19.70;77.10;;;;;;4712998;30;20067;-64
2022/05/11 06:47:11;;;;;;;11.60;6.53;;;19.80;77.10;;;;;;4719037;30;21107;-64
2022/05/11 06:49:39;;;;;;;10.65;6.38;;;19.90;82.50;;;;;;4717215;30;20066;-64
2022/05/11 06:52:06;;;;;;;10.07;5.80;;;20.10;78.40;;;;;;4719791;30;20066;-63
2022/05/11 07:00:05;;;;;;;8.68;5.07;;;20.40;78.20;;;;;;4721863;29;20120;-64
2022/05/11 07:02:34;;;;;;;8.70;6.15;;;20.50;74.70;;;;;;4706480;30;20051;-64
2022/05/11 07:05:01;;;;;;;11.48;5.93;;;20.70;72.60;;;;;;4723588;30;20051;-64
2022/05/11 07:07:28;;;;;;;9.15;5.85;;;20.60;73.40;;;;;;4703026;30;20052;-64
2022/05/11 07:09:56;;;;;;;16.27;6.80;;;20.70;70.70;;;;;;4715909;30;20067;-65
2022/05/11 07:12:32;;;;;;;9.35;5.05;;;20.80;76.70;;;;;;4708698;30;20051;-65
2022/05/11 07:15:00;;;;;;;12.85;4.97;;;21.00;71.40;;;;;;4705835;30;22550;-64
2022/05/11 07:17:57;;;;;;;7.80;4.43;;;21.10;72.60;;;;;;4692868;30;20075;-65
2022/05/11 07:20:34;;;;;;;9.65;4.47;;;21.10;69.40;;;;;;4695183;30;21543;-65
2022/05/11 07:23:02;;;;;;;8.80;4.80;;;21.20;70.60;;;;;;4718263;30;20048;-64
2022/05/11 07:25:30;;;;;;;6.97;4.20;;;21.40;70.70;;;;;;4717001;30;20048;-64
2022/05/11 07:27:58;;;;;;;9.98;3.90;;;21.40;68.40;;;;;;4718936;30;20048;-64
2022/05/11 07:30:37;;;;;;;8.35;4.32;;;21.40;69.10;;;;;;4717931;30;20060;-64
2022/05/11 07:33:07;;;;;;;8.43;4.38;;;21.70;74.40;;;;;;4718002;30;20070;-64
2022/05/11 07:35:34;;;;;;;11.55;5.18;;;21.80;69.80;;;;;;4704248;30;20404;-64
2022/05/11 07:38:10;;;;;;;9.23;4.68;;;21.90;70.30;;;;;;4718734;30;20158;-64
2022/05/11 07:40:37;;;;;;;6.43;4.32;;;21.90;69.60;;;;;;4721181;30;20280;-64
2022/05/11 07:43:05;;;;;;;7.78;4.93;;;22.10;70.30;;;;;;4705310;30;20147;-64
2022/05/11 07:45:32;;;;;;;7.85;4.18;;;22.10;69.00;;;;;;4716546;30;20055;-65
2022/05/11 07:47:59;;;;;;;8.32;4.70;;;22.20;69.90;;;;;;4718644;30;20062;-65
2022/05/11 07:50:26;;;;;;;8.18;3.95;;;22.30;69.70;;;;;;4697169;30;20051;-65
2022/05/11 07:52:54;;;;;;;7.25;4.15;;;22.40;68.60;;;;;;4721309;30;20055;-65
2022/05/11 07:55:24;;;;;;;9.82;3.95;;;22.50;72.30;;;;;;4720478;30;20067;-64
2022/05/11 08:00:42;;;;;;;7.45;4.00;;;22.60;70.10;;;;;;4697173;30;20155;-64
2022/05/11 08:03:09;;;;;;;8.35;3.88;;;22.70;68.70;;;;;;4721441;30;20056;-65
2022/05/11 08:05:38;;;;;;;7.10;3.58;;;22.80;66.20;;;;;;4721601;30;20056;-64
2022/05/11 08:08:07;;;;;;;7.50;3.97;;;22.80;63.60;;;;;;4719999;30;21279;-65
2022/05/11 08:10:37;;;;;;;5.88;3.40;;;22.80;62.50;;;;;;4723561;30;20122;-65
2022/05/11 08:13:07;;;;;;;5.72;3.17;;;22.90;63.70;;;;;;4714182;30;20988;-65
2022/05/11 08:15:38;;;;;;;6.07;2.55;;;22.70;61.90;;;;;;4726158;30;20124;-65
2022/05/11 08:18:07;;;;;;;6.93;2.90;;;22.90;61.60;;;;;;4723515;30;20071;-65
2022/05/11 08:20:37;;;;;;;8.65;3.55;;;23.00;59.90;;;;;;4722746;30;22727;-65
2022/05/11 08:23:05;;;;;;;8.73;3.15;;;23.00;58.10;;;;;;4724988;30;20055;-65
2022/05/11 08:25:35;;;;;;;7.57;3.03;;;23.00;63.00;;;;;;4725865;30;20062;-65
2022/05/11 08:28:08;;;;;;;9.18;3.83;;;23.00;62.20;;;;;;4696495;30;20079;-66
2022/05/11 08:33:22;;;;;;;16.58;2.80;;;23.20;57.10;;;;;;4700363;30;20070;-65
2022/05/11 08:36:29;;;;;;;8.82;3.17;;;23.40;56.80;;;;;;4725209;30;20101;-65
2022/05/11 08:38:58;;;;;;;7.15;2.65;;;23.30;57.00;;;;;;4698935;30;20055;-64
2022/05/11 08:41:36;;;;;;;7.70;3.22;;;23.30;58.60;;;;;;4722933;30;20619;-65
2022/05/11 08:44:17;;;;;;;5.45;3.08;;;23.50;59.10;;;;;;4720502;30;20048;-65
2022/05/11 08:47:09;;;;;;;3.63;2.15;;;23.50;60.00;;;;;;4705078;30;20619;-65
2022/05/11 08:49:49;;;;;;;4.68;2.15;;;23.60;60.70;;;;;;4722716;30;20240;-65
2022/05/11 08:52:35;;;;;;;7.35;3.15;;;23.70;60.20;;;;;;4724326;30;22501;-65
2022/05/11 08:55:38;;;;;;;6.05;2.58;;;23.80;59.00;;;;;;4698741;30;20059;-64
2022/05/11 08:58:33;;;;;;;5.57;2.97;;;23.90;60.00;;;;;;4713268;30;20067;-65
2022/05/11 09:01:01;;;;;;;4.82;2.15;;;23.90;59.70;;;;;;4708851;30;20121;-65
2022/05/11 09:03:31;;;;;;;7.95;2.80;;;23.60;56.00;;;;;;4721258;30;20050;-65
2022/05/11 09:06:05;;;;;;;5.47;3.47;;;23.60;58.10;;;;;;4725345;30;20051;-65
2022/05/11 09:08:37;;;;;;;5.03;2.92;;;23.80;57.10;;;;;;4716622;30;20052;-65
2022/05/11 09:11:06;;;;;;;5.07;1.92;;;23.80;58.00;;;;;;4719609;30;20063;-65
2022/05/11 09:13:37;;;;;;;3.35;1.70;;;23.70;55.10;;;;;;4717849;30;20986;-65
2022/05/11 09:16:38;;;;;;;5.70;1.83;;;23.80;55.10;;;;;;4723752;30;20051;-65
2022/05/11 09:19:18;;;;;;;6.82;2.05;;;23.80;54.20;;;;;;4637928;30;20084;-65
2022/05/11 09:21:55;;;;;;;4.35;1.88;;;23.80;51.60;;;;;;4704489;30;20063;-65
2022/05/11 09:24:35;;;;;;;4.68;1.95;;;23.80;54.90;;;;;;4698675;30;20078;-65
2022/05/11 09:27:11;;;;;;;4.72;1.92;;;23.90;54.20;;;;;;4724080;30;21082;-65
2022/05/11 09:29:42;;;;;;;3.10;1.30;;;23.90;51.00;;;;;;4721481;30;22604;-65
2022/05/11 09:32:42;;;;;;;3.20;1.27;;;24.00;52.90;;;;;;4721993;30;20191;-64
2022/05/11 09:35:18;;;;;;;3.05;1.35;;;24.10;53.70;;;;;;4721438;30;20055;-64
2022/05/11 09:37:55;;;;;;;3.45;1.33;;;24.20;51.10;;;;;;4719603;30;20071;-66
2022/05/11 09:40:22;;;;;;;2.05;1.30;;;24.10;48.70;;;;;;4710537;30;20059;-65
2022/05/11 09:42:52;;;;;;;3.45;1.88;;;24.10;53.10;;;;;;4722135;30;20043;-66
2022/05/11 09:45:40;;;;;;;2.95;1.38;;;24.10;46.80;;;;;;4718072;30;20052;-65
2022/05/11 09:48:22;;;;;;;4.82;2.53;;;24.10;51.50;;;;;;4716956;30;20251;-65
2022/05/11 09:50:54;;;;;;;6.05;2.30;;;24.10;51.90;;;;;;4723267;30;20122;-65
2022/05/11 09:53:32;;;;;;;4.82;1.85;;;24.20;54.30;;;;;;4720409;30;20083;-64
2022/05/11 09:56:33;;;;;;;4.25;1.75;;;24.20;53.40;;;;;;4719583;30;22526;-64
2022/05/11 09:59:24;;;;;;;5.55;2.10;;;24.30;53.50;;;;;;4704888;30;20680;-64
2022/05/11 10:02:14;;;;;;;5.32;1.70;;;24.30;53.10;;;;;;4724789;30;20680;-64
2022/05/11 10:05:07;;;;;;;7.00;1.77;;;24.30;50.60;;;;;;4700714;30;20055;-65
2022/05/11 10:08:01;;;;;;;7.78;2.45;;;24.40;53.50;;;;;;4712513;30;22577;-64
2022/05/11 10:10:55;;;;;;;4.55;2.20;;;24.40;52.10;;;;;;4721444;30;20055;-64
2022/05/11 10:13:43;;;;;;;5.82;2.17;;;24.50;52.50;;;;;;4705535;30;20059;-64
2022/05/11 10:22:24;;;;;;;2.10;1.55;;;24.40;52.00;;;;;;4723664;30;20055;-65
2022/05/11 10:25:18;;;;;;;4.30;2.08;;;24.50;50.50;;;;;;4698558;30;20062;-64
2022/05/11 10:28:01;;;;;;;3.03;1.63;;;24.50;51.60;;;;;;4722031;30;20068;-65
2022/05/11 10:30:52;;;;;;;3.80;1.85;;;24.50;52.20;;;;;;4715332;30;20051;-64
2022/05/11 10:33:19;;;;;;;3.83;1.70;;;24.50;53.10;;;;;;4722702;30;20056;-65
2022/05/11 10:35:53;;;;;;;2.17;1.55;;;24.50;52.60;;;;;;4698471;30;20577;-65
2022/05/11 10:38:51;;;;;;;1.92;1.50;;;24.60;52.20;;;;;;4722891;30;20158;-65
2022/05/11 10:41:33;;;;;;;3.30;1.48;;;24.70;51.30;;;;;;4724925;30;20766;-65
2022/05/11 10:44:09;;;;;;;4.18;2.20;;;24.70;50.20;;;;;;4713221;30;22562;-64
2022/05/11 10:46:49;;;;;;;4.38;1.50;;;24.40;52.80;;;;;;4690544;30;20055;-65
2022/05/11 10:49:25;;;;;;;7.72;1.58;;;24.40;50.50;;;;;;4715486;30;21352;-65
2022/05/11 10:52:16;;;;;;;3.22;1.20;;;24.60;48.10;;;;;;4716179;30;20055;-65
2022/05/11 10:54:49;;;;;;;2.15;1.23;;;24.50;49.10;;;;;;4718054;30;20138;-64
2022/05/11 10:57:50;;;;;;;4.63;1.42;;;24.50;47.50;;;;;;4721091;30;20060;-65
2022/05/11 11:00:22;;;;;;;4.82;1.40;;;24.50;42.90;;;;;;4721948;30;20063;-65
2022/05/11 11:03:01;;;;;;;2.97;1.73;;;24.60;46.60;;;;;;4719806;30;20060;-65
2022/05/11 11:05:31;;;;;;;3.35;1.70;;;24.60;47.30;;;;;;4719820;30;20100;-65
2022/05/11 11:08:30;;;;;;;2.75;1.48;;;24.70;48.90;;;;;;4711997;30;20107;-64
2022/05/11 11:11:12;;;;;;;3.90;1.38;;;24.70;45.90;;;;;;4723478;30;20167;-66
2022/05/11 11:14:00;;;;;;;3.58;1.15;;;24.60;48.10;;;;;;4721674;30;20072;-64
2022/05/11 11:16:47;;;;;;;4.22;1.30;;;24.70;45.90;;;;;;4706633;29;20059;-65
2022/05/11 11:19:15;;;;;;;3.60;1.13;;;24.70;45.20;;;;;;4699965;30;20934;-65
2022/05/11 11:21:42;;;;;;;5.35;1.60;;;24.80;45.60;;;;;;4707120;30;20059;-65
2022/05/11 11:24:25;;;;;;;3.88;1.52;;;24.80;45.10;;;;;;4720634;30;20066;-66
2022/05/11 11:27:00;;;;;;;3.63;1.40;;;24.60;44.20;;;;;;4696055;30;20130;-65
2022/05/11 11:29:38;;;;;;;4.95;1.98;;;24.70;45.90;;;;;;4703138;30;20055;-64
2022/05/11 11:32:19;;;;;;;4.18;1.42;;;24.70;43.80;;;;;;4695950;30;20043;-65
2022/05/11 11:34:50;;;;;;;3.97;1.85;;;24.80;42.80;;;;;;4720252;30;20194;-65
2022/05/11 11:37:29;;;;;;;3.20;1.42;;;24.80;46.20;;;;;;4704629;30;20148;-65
2022/05/11 11:39:59;;;;;;;4.50;1.80;;;24.90;45.70;;;;;;4697429;30;20089;-65
2022/05/11 11:42:31;;;;;;;2.65;1.20;;;24.80;47.50;;;;;;4722079;30;20070;-65
2022/05/11 11:44:58;;;;;;;5.78;1.80;;;24.90;47.50;;;;;;4713978;30;22701;-65
2022/05/11 11:47:26;;;;;;;6.95;2.15;;;24.80;46.10;;;;;;4711175;30;20054;-65
2022/05/11 11:49:55;;;;;;;4.20;1.75;;;24.90;47.80;;;;;;4718945;30;20055;-65
2022/05/11 11:52:46;;;;;;;3.28;1.35;;;24.80;47.30;;;;;;4725160;30;20101;-65
2022/05/11 11:55:23;;;;;;;2.47;1.50;;;24.70;46.30;;;;;;4728014;30;20116;-66
2022/05/11 11:57:56;;;;;;;4.75;1.60;;;24.70;46.50;;;;;;4680660;30;21044;-65
2022/05/11 12:00:32;;;;;;;4.18;1.50;;;24.70;48.50;;;;;;4721427;30;20055;-65
2022/05/11 12:03:00;;;;;;;3.33;1.58;;;24.70;46.20;;;;;;4727989;30;20055;-66
2022/05/11 12:05:55;;;;;;;5.18;1.50;;;24.90;49.60;;;;;;4707565;30;20058;-65
2022/05/11 12:17:08;;;;;;;3.30;1.83;;;25.10;50.20;;;;;;4724000;30;20063;-65
2022/05/11 12:19:37;;;;;;;3.22;1.85;;;25.20;49.30;;;;;;4720101;30;20946;-65
2022/05/11 12:22:18;;;;;;;2.67;1.52;;;25.20;48.20;;;;;;4720091;30;20056;-65
2022/05/11 12:25:09;;;;;;;3.40;1.63;;;25.20;48.20;;;;;;4697051;30;20082;-65
2022/05/11 12:27:37;;;;;;;4.13;2.03;;;25.20;51.40;;;;;;4699733;30;20819;-65
2022/05/11 12:30:18;;;;;;;3.30;1.60;;;25.20;49.90;;;;;;4723792;30;20867;-65
2022/05/11 12:32:53;;;;;;;3.67;1.80;;;25.30;51.60;;;;;;4713432;30;20078;-66
2022/05/11 12:35:25;;;;;;;3.45;1.75;;;25.40;49.10;;;;;;4724162;30;20062;-65
2022/05/11 12:38:03;;;;;;;3.80;2.05;;;25.40;49.10;;;;;;4723778;30;20138;-66
2022/05/11 12:40:40;;;;;;;7.47;1.75;;;25.40;50.00;;;;;;4719974;30;22975;-65
2022/05/11 12:43:18;;;;;;;4.80;1.77;;;25.30;48.30;;;;;;4723363;30;20058;-65
2022/05/11 12:45:46;;;;;;;3.42;2.05;;;25.20;49.10;;;;;;4726536;30;20967;-65
2022/05/11 12:48:31;;;;;;;4.20;1.70;;;25.10;48.30;;;;;;4724453;30;20919;-65
2022/05/11 12:51:08;;;;;;;5.18;1.83;;;25.20;47.80;;;;;;4726928;30;20047;-65
2022/05/11 12:53:39;;;;;;;4.15;1.45;;;25.40;49.90;;;;;;4723713;30;21035;-66
2022/05/11 12:56:10;;;;;;;3.22;1.83;;;25.50;50.60;;;;;;4704723;29;20542;-66
2022/05/11 12:58:43;;;;;;;6.32;1.85;;;25.50;48.40;;;;;;4705213;30;21074;-64
2022/05/11 13:01:13;;;;;;;5.65;1.88;;;25.60;49.80;;;;;;4720813;30;20154;-65
2022/05/11 13:03:42;;;;;;;5.50;1.70;;;25.60;50.40;;;;;;4721558;30;20051;-65
2022/05/11 13:06:18;;;;;;;5.45;1.98;;;25.60;49.30;;;;;;4716612;30;20056;-65
2022/05/11 13:08:48;;;;;;;3.00;2.05;;;25.60;48.10;;;;;;4721419;30;22480;-65
2022/05/11 13:11:22;;;;;;;5.45;2.15;;;25.70;51.20;;;;;;4723990;30;20055;-66
2022/05/11 13:13:54;;;;;;;3.20;1.83;;;25.70;47.40;;;;;;4722823;30;20068;-65
2022/05/11 13:16:32;;;;;;;3.03;1.50;;;25.50;48.10;;;;;;4719888;29;20055;-64
2022/05/11 13:19:24;;;;;;;3.45;1.50;;;25.70;49.10;;;;;;4699956;30;22864;-65
2022/05/11 13:21:54;;;;;;;3.58;1.67;;;25.70;48.80;;;;;;4717944;30;22760;-65
2022/05/11 13:24:39;;;;;;;3.15;1.80;;;25.70;48.40;;;;;;4717669;30;20059;-65
2022/05/11 13:27:37;;;;;;;3.35;1.73;;;25.70;48.40;;;;;;4721772;30;20080;-65
2022/05/11 13:30:27;;;;;;;3.15;2.08;;;25.60;48.70;;;;;;4723917;30;20063;-67
2022/05/11 13:32:57;;;;;;;4.18;1.58;;;25.70;48.90;;;;;;4707891;30;21351;-65
2022/05/11 13:35:37;;;;;;;2.35;1.67;;;25.80;51.90;;;;;;4699311;30;20095;-65
2022/05/11 13:38:10;;;;;;;4.28;1.70;;;25.70;47.40;;;;;;4723341;30;20063;-65
2022/05/11 13:41:01;;;;;;;3.70;1.98;;;25.70;48.80;;;;;;4721675;30;20272;-65
2022/05/11 13:43:32;;;;;;;3.97;1.80;;;25.70;49.40;;;;;;4718086;30;20060;-65
2022/05/11 13:46:08;;;;;;;3.17;1.67;;;25.80;50.70;;;;;;4724423;30;20059;-65